sensor_id;sensor_type;location;lat;lon;timestamp;pressure;altitude;pressure_sealevel;temperature;humidity
19827;BME280;10074;52.018;4.726;2023-02-10T00:01:41;46223.25;;;-144.79;100.00
19827;BME280;10074;52.018;4.726;2023-02-10T00:06:41;46211.22;;;-144.79;100.00
19827;BME280;10074;52.018;4.726;2023-02-10T00:11:42;46211.22;;;-144.79;100.00
19827;BME280;10074;52.018;4.726;2023-02-10T00:16:59;46219.25;;;-144.79;100.00
19827;BME280;10074;52.018;4.726;2023-02-10T00:22:01;46217.25;;;-144.79;100.00
19827;BME280;10074;52.018;4.726;2023-02-10T00:27:02;46227.28;;;-144.79;100.00
19827;BME280;10074;52.018;4.726;2023-02-10T00:32:02;46221.25;;;-144.79;100.00
19827;BME280;10074;52.018;4.726;2023-02-10T00:37:02;46219.25;;;-144.79;100.00
19827;BME280;10074;52.018;4.726;2023-02-10T00:42:03;46217.25;;;-144.79;100.00
19827;BME280;10074;52.018;4.726;2023-02-10T00:47:03;46223.25;;;-144.79;100.00
19827;BME280;10074;52.018;4.726;2023-02-10T00:52:04;46209.22;;;-144.79;100.00
19827;BME280;10074;52.018;4.726;2023-02-10T00:57:04;46237.31;;;-144.79;100.00
19827;BME280;10074;52.018;4.726;2023-02-10T01:02:05;46225.28;;;-144.79;100.00
19827;BME280;10074;52.018;4.726;2023-02-10T01:07:05;46223.25;;;-144.79;100.00
19827;BME280;10074;52.018;4.726;2023-02-10T01:12:05;46227.28;;;-144.79;100.00
19827;BME280;10074;52.018;4.726;2023-02-10T01:17:06;46223.25;;;-144.79;100.00
19827;BME280;10074;52.018;4.726;2023-02-10T01:22:06;46223.25;;;-144.79;100.00
19827;BME280;10074;52.018;4.726;2023-02-10T01:27:06;46213.25;;;-144.79;100.00
19827;BME280;10074;52.018;4.726;2023-02-10T01:32:07;46219.25;;;-144.79;100.00
19827;BME280;10074;52.018;4.726;2023-02-10T01:37:07;46211.22;;;-144.79;100.00
19827;BME280;10074;52.018;4.726;2023-02-10T01:42:12;46231.28;;;-144.79;100.00
19827;BME280;10074;52.018;4.726;2023-02-10T01:47:13;46225.28;;;-144.79;100.00
19827;BME280;10074;52.018;4.726;2023-02-10T01:52:16;46229.28;;;-144.79;100.00
19827;BME280;10074;52.018;4.726;2023-02-10T01:57:18;46207.22;;;-144.79;100.00
19827;BME280;10074;52.018;4.726;2023-02-10T02:02:19;46215.25;;;-144.79;100.00
19827;BME280;10074;52.018;4.726;2023-02-10T02:07:26;46225.28;;;-144.79;100.00
19827;BME280;10074;52.018;4.726;2023-02-10T02:12:40;46223.25;;;-144.79;100.00
19827;BME280;10074;52.018;4.726;2023-02-10T02:17:52;46211.22;;;-144.79;100.00
19827;BME280;10074;52.018;4.726;2023-02-10T02:23:23;46233.28;;;-144.79;100.00
19827;BME280;10074;52.018;4.726;2023-02-10T02:34:09;46229.28;;;-144.79;100.00
19827;BME280;10074;52.018;4.726;2023-02-10T02:39:11;46227.28;;;-144.79;100.00
19827;BME280;10074;52.018;4.726;2023-02-10T02:44:11;46217.25;;;-144.79;100.00
19827;BME280;10074;52.018;4.726;2023-02-10T02:54:27;46223.25;;;-144.79;100.00
19827;BME280;10074;52.018;4.726;2023-02-10T03:04:34;46219.25;;;-144.79;100.00
19827;BME280;10074;52.018;4.726;2023-02-10T03:09:37;46227.28;;;-144.79;100.00
19827;BME280;10074;52.018;4.726;2023-02-10T03:14:38;46235.28;;;-144.79;100.00
19827;BME280;10074;52.018;4.726;2023-02-10T03:19:38;46213.25;;;-144.79;100.00
19827;BME280;10074;52.018;4.726;2023-02-10T03:24:39;46227.28;;;-144.79;100.00
19827;BME280;10074;52.018;4.726;2023-02-10T03:29:39;46223.25;;;-144.79;100.00
19827;BME280;10074;52.018;4.726;2023-02-10T03:34:39;46209.22;;;-144.79;100.00
19827;BME280;10074;52.018;4.726;2023-02-10T03:39:40;46213.25;;;-144.79;100.00
19827;BME280;10074;52.018;4.726;2023-02-10T03:44:40;46221.25;;;-144.79;100.00
19827;BME280;10074;52.018;4.726;2023-02-10T03:49:41;46223.25;;;-144.79;100.00
19827;BME280;10074;52.018;4.726;2023-02-10T03:54:41;46223.25;;;-144.79;100.00
19827;BME280;10074;52.018;4.726;2023-02-10T03:59:41;46215.25;;;-144.79;100.00
19827;BME280;10074;52.018;4.726;2023-02-10T04:04:41;46217.25;;;-144.79;100.00
19827;BME280;10074;52.018;4.726;2023-02-10T04:09:42;46215.25;;;-144.79;100.00
19827;BME280;10074;52.018;4.726;2023-02-10T04:14:43;46221.25;;;-144.79;100.00
19827;BME280;10074;52.018;4.726;2023-02-10T04:19:43;46219.25;;;-144.79;100.00
19827;BME280;10074;52.018;4.726;2023-02-10T04:24:43;46219.25;;;-144.79;100.00
19827;BME280;10074;52.018;4.726;2023-02-10T04:29:44;46223.25;;;-144.79;100.00
19827;BME280;10074;52.018;4.726;2023-02-10T04:34:44;46221.25;;;-144.79;100.00
19827;BME280;10074;52.018;4.726;2023-02-10T04:39:45;46219.25;;;-144.79;100.00
19827;BME280;10074;52.018;4.726;2023-02-10T04:44:45;46219.25;;;-144.79;100.00
19827;BME280;10074;52.018;4.726;2023-02-10T04:49:46;46205.22;;;-144.79;100.00
19827;BME280;10074;52.018;4.726;2023-02-10T04:54:46;46215.25;;;-144.79;100.00
19827;BME280;10074;52.018;4.726;2023-02-10T04:59:47;46211.22;;;-144.79;100.00
19827;BME280;10074;52.018;4.726;2023-02-10T05:04:47;46213.25;;;-144.79;100.00
19827;BME280;10074;52.018;4.726;2023-02-10T05:09:48;46219.25;;;-144.79;100.00
19827;BME280;10074;52.018;4.726;2023-02-10T05:14:48;46227.28;;;-144.79;100.00
19827;BME280;10074;52.018;4.726;2023-02-10T05:19:48;46209.22;;;-144.79;100.00
19827;BME280;10074;52.018;4.726;2023-02-10T05:24:49;46211.22;;;-144.79;100.00
19827;BME280;10074;52.018;4.726;2023-02-10T05:29:52;46219.25;;;-144.79;100.00
19827;BME280;10074;52.018;4.726;2023-02-10T05:34:52;46217.25;;;-144.79;100.00
19827;BME280;10074;52.018;4.726;2023-02-10T05:39:53;46227.28;;;-144.79;100.00
19827;BME280;10074;52.018;4.726;2023-02-10T05:44:53;46211.22;;;-144.79;100.00
19827;BME280;10074;52.018;4.726;2023-02-10T05:49:54;46223.25;;;-144.79;100.00
19827;BME280;10074;52.018;4.726;2023-02-10T05:54:54;46227.28;;;-144.79;100.00
19827;BME280;10074;52.018;4.726;2023-02-10T05:59:54;46229.28;;;-144.79;100.00
19827;BME280;10074;52.018;4.726;2023-02-10T06:04:55;46203.22;;;-144.79;100.00
19827;BME280;10074;52.018;4.726;2023-02-10T06:09:55;46215.25;;;-144.79;100.00
19827;BME280;10074;52.018;4.726;2023-02-10T06:14:55;46213.25;;;-144.79;100.00
19827;BME280;10074;52.018;4.726;2023-02-10T06:19:56;46199.19;;;-144.79;100.00
19827;BME280;10074;52.018;4.726;2023-02-10T06:24:56;46219.25;;;-144.79;100.00
19827;BME280;10074;52.018;4.726;2023-02-10T06:29:57;46211.22;;;-144.79;100.00
19827;BME280;10074;52.018;4.726;2023-02-10T06:34:57;46189.19;;;-144.79;100.00
19827;BME280;10074;52.018;4.726;2023-02-10T06:39:57;46197.19;;;-144.79;100.00
19827;BME280;10074;52.018;4.726;2023-02-10T06:44:58;46183.16;;;-144.79;100.00
19827;BME280;10074;52.018;4.726;2023-02-10T06:49:58;46193.19;;;-144.79;100.00
19827;BME280;10074;52.018;4.726;2023-02-10T06:54:59;46141.06;;;-144.79;100.00
19827;BME280;10074;52.018;4.726;2023-02-10T06:59:59;46183.16;;;-144.79;100.00
19827;BME280;10074;52.018;4.726;2023-02-10T07:04:59;46209.22;;;-144.79;100.00
19827;BME280;10074;52.018;4.726;2023-02-10T07:10:00;46253.34;;;-144.79;100.00
19827;BME280;10074;52.018;4.726;2023-02-10T07:15:00;46309.47;;;-144.79;100.00
19827;BME280;10074;52.018;4.726;2023-02-10T07:20:05;46323.53;;;-144.79;100.00
19827;BME280;10074;52.018;4.726;2023-02-10T07:25:05;46267.38;;;-144.79;100.00
19827;BME280;10074;52.018;4.726;2023-02-10T07:30:06;46271.38;;;-144.79;100.00
19827;BME280;10074;52.018;4.726;2023-02-10T07:35:07;46223.25;;;-144.79;100.00
19827;BME280;10074;52.018;4.726;2023-02-10T07:40:08;46165.13;;;-144.79;100.00
19827;BME280;10074;52.018;4.726;2023-02-10T07:45:08;46171.13;;;-144.79;100.00
19827;BME280;10074;52.018;4.726;2023-02-10T07:50:09;46163.13;;;-144.79;100.00
19827;BME280;10074;52.018;4.726;2023-02-10T07:55:09;46149.06;;;-144.79;100.00
19827;BME280;10074;52.018;4.726;2023-02-10T08:00:10;46187.19;;;-144.79;100.00
19827;BME280;10074;52.018;4.726;2023-02-10T08:05:12;46193.19;;;-144.79;100.00
19827;BME280;10074;52.018;4.726;2023-02-10T08:10:12;46203.22;;;-144.79;100.00
19827;BME280;10074;52.018;4.726;2023-02-10T08:15:13;46175.16;;;-144.79;100.00
19827;BME280;10074;52.018;4.726;2023-02-10T08:20:17;46181.16;;;-144.79;100.00
19827;BME280;10074;52.018;4.726;2023-02-10T08:25:17;46183.16;;;-144.79;100.00
19827;BME280;10074;52.018;4.726;2023-02-10T08:30:18;46201.22;;;-144.79;100.00
19827;BME280;10074;52.018;4.726;2023-02-10T08:35:18;46195.19;;;-144.79;100.00
19827;BME280;10074;52.018;4.726;2023-02-10T08:40:19;46183.16;;;-144.79;100.00
19827;BME280;10074;52.018;4.726;2023-02-10T08:45:19;46181.16;;;-144.79;100.00
19827;BME280;10074;52.018;4.726;2023-02-10T08:50:20;46157.09;;;-144.79;100.00
19827;BME280;10074;52.018;4.726;2023-02-10T08:55:20;46171.13;;;-144.79;100.00
19827;BME280;10074;52.018;4.726;2023-02-10T09:00:24;46149.06;;;-144.79;100.00
19827;BME280;10074;52.018;4.726;2023-02-10T09:05:24;46183.16;;;-144.79;100.00
19827;BME280;10074;52.018;4.726;2023-02-10T09:10:40;46167.13;;;-144.79;100.00
19827;BME280;10074;52.018;4.726;2023-02-10T09:15:41;46163.13;;;-144.79;100.00
19827;BME280;10074;52.018;4.726;2023-02-10T09:20:43;46159.09;;;-144.79;100.00
19827;BME280;10074;52.018;4.726;2023-02-10T09:25:53;46167.13;;;-144.79;100.00
19827;BME280;10074;52.018;4.726;2023-02-10T09:30:54;46187.19;;;-144.79;100.00
19827;BME280;10074;52.018;4.726;2023-02-10T09:35:54;46189.19;;;-144.79;100.00
19827;BME280;10074;52.018;4.726;2023-02-10T09:46:55;46187.19;;;-144.79;100.00
19827;BME280;10074;52.018;4.726;2023-02-10T09:52:18;46187.19;;;-144.79;100.00
19827;BME280;10074;52.018;4.726;2023-02-10T09:57:28;46171.13;;;-144.79;100.00
19827;BME280;10074;52.018;4.726;2023-02-10T10:02:33;46183.16;;;-144.79;100.00
19827;BME280;10074;52.018;4.726;2023-02-10T10:07:35;46191.19;;;-144.79;100.00
19827;BME280;10074;52.018;4.726;2023-02-10T10:12:37;46191.19;;;-144.79;100.00
19827;BME280;10074;52.018;4.726;2023-02-10T10:18:05;46189.19;;;-144.79;100.00
19827;BME280;10074;52.018;4.726;2023-02-10T10:23:35;46161.09;;;-144.79;100.00
19827;BME280;10074;52.018;4.726;2023-02-10T10:28:51;46155.09;;;-144.79;100.00
19827;BME280;10074;52.018;4.726;2023-02-10T10:39:22;46155.09;;;-144.79;100.00
19827;BME280;10074;52.018;4.726;2023-02-10T10:44:24;46181.16;;;-144.79;100.00
19827;BME280;10074;52.018;4.726;2023-02-10T10:49:26;46159.09;;;-144.79;100.00
19827;BME280;10074;52.018;4.726;2023-02-10T10:54:27;46195.19;;;-144.79;100.00
19827;BME280;10074;52.018;4.726;2023-02-10T10:59:32;46189.19;;;-144.79;100.00
19827;BME280;10074;52.018;4.726;2023-02-10T11:04:33;46187.19;;;-144.79;100.00
19827;BME280;10074;52.018;4.726;2023-02-10T11:09:41;46167.13;;;-144.79;100.00
19827;BME280;10074;52.018;4.726;2023-02-10T11:14:51;46175.16;;;-144.79;100.00
19827;BME280;10074;52.018;4.726;2023-02-10T11:19:59;46155.09;;;-144.79;100.00
19827;BME280;10074;52.018;4.726;2023-02-10T11:25:03;46167.13;;;-144.79;100.00
19827;BME280;10074;52.018;4.726;2023-02-10T11:30:27;46187.19;;;-144.79;100.00
19827;BME280;10074;52.018;4.726;2023-02-10T11:35:31;46191.19;;;-144.79;100.00
19827;BME280;10074;52.018;4.726;2023-02-10T11:46:02;46189.19;;;-144.79;100.00
19827;BME280;10074;52.018;4.726;2023-02-10T11:51:22;46163.13;;;-144.79;100.00
19827;BME280;10074;52.018;4.726;2023-02-10T11:57:04;46203.22;;;-144.79;100.00
19827;BME280;10074;52.018;4.726;2023-02-10T12:19:03;46209.22;;;-144.79;100.00
19827;BME280;10074;52.018;4.726;2023-02-10T12:24:58;46189.19;;;-144.79;100.00
19827;BME280;10074;52.018;4.726;2023-02-10T12:35:02;46185.16;;;-144.79;100.00
19827;BME280;10074;52.018;4.726;2023-02-10T12:56:23;46207.22;;;-144.79;100.00
19827;BME280;10074;52.018;4.726;2023-02-10T13:01:31;46203.22;;;-144.79;100.00
19827;BME280;10074;52.018;4.726;2023-02-10T13:06:38;46205.22;;;-144.79;100.00
19827;BME280;10074;52.018;4.726;2023-02-10T13:16:59;46219.25;;;-144.79;100.00
19827;BME280;10074;52.018;4.726;2023-02-10T13:33:49;46215.25;;;-144.79;100.00
19827;BME280;10074;52.018;4.726;2023-02-10T13:38:17;46203.22;;;-144.79;100.00
19827;BME280;10074;52.018;4.726;2023-02-10T13:43:31;46207.22;;;-144.79;100.00
19827;BME280;10074;52.018;4.726;2023-02-10T13:48:34;46193.19;;;-144.79;100.00
19827;BME280;10074;52.018;4.726;2023-02-10T13:58:54;46191.19;;;-144.79;100.00
19827;BME280;10074;52.018;4.726;2023-02-10T14:03:56;46199.19;;;-144.79;100.00
19827;BME280;10074;52.018;4.726;2023-02-10T14:09:04;46203.22;;;-144.79;100.00
19827;BME280;10074;52.018;4.726;2023-02-10T14:14:25;46211.22;;;-144.79;100.00
19827;BME280;10074;52.018;4.726;2023-02-10T14:19:32;46187.19;;;-144.79;100.00
19827;BME280;10074;52.018;4.726;2023-02-10T14:24:42;46215.25;;;-144.79;100.00
19827;BME280;10074;52.018;4.726;2023-02-10T14:29:48;46207.22;;;-144.79;100.00
19827;BME280;10074;52.018;4.726;2023-02-10T14:34:58;46201.22;;;-144.79;100.00
19827;BME280;10074;52.018;4.726;2023-02-10T14:40:01;46211.22;;;-144.79;100.00
19827;BME280;10074;52.018;4.726;2023-02-10T14:45:02;46219.25;;;-144.79;100.00
19827;BME280;10074;52.018;4.726;2023-02-10T14:50:05;46213.25;;;-144.79;100.00
19827;BME280;10074;52.018;4.726;2023-02-10T15:00:27;46211.22;;;-144.79;100.00
19827;BME280;10074;52.018;4.726;2023-02-10T15:05:34;46215.25;;;-144.79;100.00
19827;BME280;10074;52.018;4.726;2023-02-10T15:10:41;46215.25;;;-144.79;100.00
19827;BME280;10074;52.018;4.726;2023-02-10T15:15:45;46223.25;;;-144.79;100.00
19827;BME280;10074;52.018;4.726;2023-02-10T15:20:58;46225.28;;;-144.79;100.00
19827;BME280;10074;52.018;4.726;2023-02-10T15:26:15;46231.28;;;-144.79;100.00
19827;BME280;10074;52.018;4.726;2023-02-10T15:31:25;46229.28;;;-144.79;100.00
19827;BME280;10074;52.018;4.726;2023-02-10T15:36:27;46227.28;;;-144.79;100.00
19827;BME280;10074;52.018;4.726;2023-02-10T15:47:18;46213.25;;;-144.79;100.00
19827;BME280;10074;52.018;4.726;2023-02-10T15:52:26;46223.25;;;-144.79;100.00
19827;BME280;10074;52.018;4.726;2023-02-10T15:57:27;46221.25;;;-144.79;100.00
19827;BME280;10074;52.018;4.726;2023-02-10T16:02:28;46221.25;;;-144.79;100.00
19827;BME280;10074;52.018;4.726;2023-02-10T16:07:29;46223.25;;;-144.79;100.00
19827;BME280;10074;52.018;4.726;2023-02-10T16:12:29;46231.28;;;-144.79;100.00
19827;BME280;10074;52.018;4.726;2023-02-10T16:17:37;46223.25;;;-144.79;100.00
19827;BME280;10074;52.018;4.726;2023-02-10T16:22:38;46217.25;;;-144.79;100.00
19827;BME280;10074;52.018;4.726;2023-02-10T16:27:38;46227.28;;;-144.79;100.00
19827;BME280;10074;52.018;4.726;2023-02-10T16:32:38;46225.28;;;-144.79;100.00
19827;BME280;10074;52.018;4.726;2023-02-10T16:37:39;46239.31;;;-144.79;100.00
19827;BME280;10074;52.018;4.726;2023-02-10T16:42:39;46223.25;;;-144.79;100.00
19827;BME280;10074;52.018;4.726;2023-02-10T16:47:40;46211.22;;;-144.79;100.00
19827;BME280;10074;52.018;4.726;2023-02-10T16:52:40;46231.28;;;-144.79;100.00
19827;BME280;10074;52.018;4.726;2023-02-10T16:57:41;46235.28;;;-144.79;100.00
19827;BME280;10074;52.018;4.726;2023-02-10T17:02:41;46229.28;;;-144.79;100.00
19827;BME280;10074;52.018;4.726;2023-02-10T17:07:42;46229.28;;;-144.79;100.00
19827;BME280;10074;52.018;4.726;2023-02-10T17:12:42;46231.28;;;-144.79;100.00
19827;BME280;10074;52.018;4.726;2023-02-10T17:17:43;46225.28;;;-144.79;100.00
19827;BME280;10074;52.018;4.726;2023-02-10T17:22:43;46225.28;;;-144.79;100.00
19827;BME280;10074;52.018;4.726;2023-02-10T17:27:44;46225.28;;;-144.79;100.00
19827;BME280;10074;52.018;4.726;2023-02-10T17:32:44;46229.28;;;-144.79;100.00
19827;BME280;10074;52.018;4.726;2023-02-10T17:37:45;46231.28;;;-144.79;100.00
19827;BME280;10074;52.018;4.726;2023-02-10T17:42:46;46241.31;;;-144.79;100.00
19827;BME280;10074;52.018;4.726;2023-02-10T17:47:46;46243.31;;;-144.79;100.00
19827;BME280;10074;52.018;4.726;2023-02-10T17:52:49;46219.25;;;-144.79;100.00
19827;BME280;10074;52.018;4.726;2023-02-10T17:57:50;46235.28;;;-144.79;100.00
19827;BME280;10074;52.018;4.726;2023-02-10T18:02:50;46225.28;;;-144.79;100.00
19827;BME280;10074;52.018;4.726;2023-02-10T18:07:52;46231.28;;;-144.79;100.00
19827;BME280;10074;52.018;4.726;2023-02-10T18:12:52;46239.31;;;-144.79;100.00
19827;BME280;10074;52.018;4.726;2023-02-10T18:17:52;46227.28;;;-144.79;100.00
19827;BME280;10074;52.018;4.726;2023-02-10T18:22:53;46227.28;;;-144.79;100.00
19827;BME280;10074;52.018;4.726;2023-02-10T18:27:53;46229.28;;;-144.79;100.00
19827;BME280;10074;52.018;4.726;2023-02-10T18:32:54;46229.28;;;-144.79;100.00
19827;BME280;10074;52.018;4.726;2023-02-10T18:37:54;46227.28;;;-144.79;100.00
19827;BME280;10074;52.018;4.726;2023-02-10T18:42:55;46241.31;;;-144.79;100.00
19827;BME280;10074;52.018;4.726;2023-02-10T18:47:55;46233.28;;;-144.79;100.00
19827;BME280;10074;52.018;4.726;2023-02-10T18:52:56;46241.31;;;-144.79;100.00
19827;BME280;10074;52.018;4.726;2023-02-10T18:57:56;46241.31;;;-144.79;100.00
19827;BME280;10074;52.018;4.726;2023-02-10T19:03:00;46237.31;;;-144.79;100.00
19827;BME280;10074;52.018;4.726;2023-02-10T19:08:00;46235.28;;;-144.79;100.00
19827;BME280;10074;52.018;4.726;2023-02-10T19:13:01;46237.31;;;-144.79;100.00
19827;BME280;10074;52.018;4.726;2023-02-10T19:18:01;46235.28;;;-144.79;100.00
19827;BME280;10074;52.018;4.726;2023-02-10T19:23:02;46223.25;;;-144.79;100.00
19827;BME280;10074;52.018;4.726;2023-02-10T19:28:02;46231.28;;;-144.79;100.00
19827;BME280;10074;52.018;4.726;2023-02-10T19:33:02;46231.28;;;-144.79;100.00
19827;BME280;10074;52.018;4.726;2023-02-10T19:38:04;46239.31;;;-144.79;100.00
19827;BME280;10074;52.018;4.726;2023-02-10T19:43:04;46235.28;;;-144.79;100.00
19827;BME280;10074;52.018;4.726;2023-02-10T19:48:05;46243.31;;;-144.79;100.00
19827;BME280;10074;52.018;4.726;2023-02-10T19:53:05;46237.31;;;-144.79;100.00
19827;BME280;10074;52.018;4.726;2023-02-10T19:58:06;46227.28;;;-144.79;100.00
19827;BME280;10074;52.018;4.726;2023-02-10T20:03:07;46235.28;;;-144.79;100.00
19827;BME280;10074;52.018;4.726;2023-02-10T20:08:08;46225.28;;;-144.79;100.00
19827;BME280;10074;52.018;4.726;2023-02-10T20:13:09;46227.28;;;-144.79;100.00
19827;BME280;10074;52.018;4.726;2023-02-10T20:18:10;46229.28;;;-144.79;100.00
19827;BME280;10074;52.018;4.726;2023-02-10T20:23:11;46231.28;;;-144.79;100.00
19827;BME280;10074;52.018;4.726;2023-02-10T20:28:12;46233.28;;;-144.79;100.00
19827;BME280;10074;52.018;4.726;2023-02-10T20:33:13;46233.28;;;-144.79;100.00
19827;BME280;10074;52.018;4.726;2023-02-10T20:38:13;46239.31;;;-144.79;100.00
19827;BME280;10074;52.018;4.726;2023-02-10T20:43:14;46235.28;;;-144.79;100.00
19827;BME280;10074;52.018;4.726;2023-02-10T20:48:14;46231.28;;;-144.79;100.00
19827;BME280;10074;52.018;4.726;2023-02-10T20:53:15;46225.28;;;-144.79;100.00
19827;BME280;10074;52.018;4.726;2023-02-10T20:58:16;46247.31;;;-144.79;100.00
19827;BME280;10074;52.018;4.726;2023-02-10T21:03:17;46239.31;;;-144.79;100.00
19827;BME280;10074;52.018;4.726;2023-02-10T21:08:18;46239.31;;;-144.79;100.00
19827;BME280;10074;52.018;4.726;2023-02-10T21:13:18;46251.34;;;-144.79;100.00
19827;BME280;10074;52.018;4.726;2023-02-10T21:18:20;46231.28;;;-144.79;100.00
19827;BME280;10074;52.018;4.726;2023-02-10T21:23:20;46247.31;;;-144.79;100.00
19827;BME280;10074;52.018;4.726;2023-02-10T21:28:21;46235.28;;;-144.79;100.00
19827;BME280;10074;52.018;4.726;2023-02-10T21:33:22;46245.31;;;-144.79;100.00
19827;BME280;10074;52.018;4.726;2023-02-10T21:38:23;46237.31;;;-144.79;100.00
19827;BME280;10074;52.018;4.726;2023-02-10T21:43:23;46239.31;;;-144.79;100.00
19827;BME280;10074;52.018;4.726;2023-02-10T21:48:25;46241.31;;;-144.79;100.00
19827;BME280;10074;52.018;4.726;2023-02-10T21:53:25;46237.31;;;-144.79;100.00
19827;BME280;10074;52.018;4.726;2023-02-10T21:58:26;46243.31;;;-144.79;100.00
19827;BME280;10074;52.018;4.726;2023-02-10T22:03:26;46243.31;;;-144.79;100.00
19827;BME280;10074;52.018;4.726;2023-02-10T22:08:30;46247.31;;;-144.79;100.00
19827;BME280;10074;52.018;4.726;2023-02-10T22:13:33;46243.31;;;-144.79;100.00
19827;BME280;10074;52.018;4.726;2023-02-10T22:18:35;46247.31;;;-144.79;100.00
19827;BME280;10074;52.018;4.726;2023-02-10T22:23:35;46237.31;;;-144.79;100.00
19827;BME280;10074;52.018;4.726;2023-02-10T22:28:40;46249.34;;;-144.79;100.00
19827;BME280;10074;52.018;4.726;2023-02-10T22:33:41;46239.31;;;-144.79;100.00
19827;BME280;10074;52.018;4.726;2023-02-10T22:38:44;46239.31;;;-144.79;100.00
19827;BME280;10074;52.018;4.726;2023-02-10T22:43:45;46237.31;;;-144.79;100.00
19827;BME280;10074;52.018;4.726;2023-02-10T22:48:50;46241.31;;;-144.79;100.00
19827;BME280;10074;52.018;4.726;2023-02-10T22:53:58;46241.31;;;-144.79;100.00
19827;BME280;10074;52.018;4.726;2023-02-10T22:59:00;46243.31;;;-144.79;100.00
19827;BME280;10074;52.018;4.726;2023-02-10T23:04:03;46243.31;;;-144.79;100.00
19827;BME280;10074;52.018;4.726;2023-02-10T23:09:05;46251.34;;;-144.79;100.00
19827;BME280;10074;52.018;4.726;2023-02-10T23:14:06;46249.34;;;-144.79;100.00
19827;BME280;10074;52.018;4.726;2023-02-10T23:19:07;46239.31;;;-144.79;100.00
19827;BME280;10074;52.018;4.726;2023-02-10T23:24:07;46239.31;;;-144.79;100.00
19827;BME280;10074;52.018;4.726;2023-02-10T23:29:11;46245.31;;;-144.79;100.00
19827;BME280;10074;52.018;4.726;2023-02-10T23:34:12;46247.31;;;-144.79;100.00
19827;BME280;10074;52.018;4.726;2023-02-10T23:39:12;46243.31;;;-144.79;100.00
19827;BME280;10074;52.018;4.726;2023-02-10T23:44:13;46239.31;;;-144.79;100.00
19827;BME280;10074;52.018;4.726;2023-02-10T23:49:14;46239.31;;;-144.79;100.00
19827;BME280;10074;52.018;4.726;2023-02-10T23:54:15;46243.31;;;-144.79;100.00
19827;BME280;10074;52.018;4.726;2023-02-10T23:59:15;46253.34;;;-144.79;100.00
